world map with HER marked

HER - Airport

This information may not be accurate or current and is not valid for navigation or flight planning. No warranty of fitness for any purpose is made or implied.

flag of Greece

Donate via PayPal

Additional information is available on the NEW Great Circle Mapper

Location
City:  Heraklion, Crete, Greece
Near (Alt.):Iraklion
Name:Nikos Kazantzakis
ICAO / IATA:LGIR / HER

Details
Type:Airport (Aerodrome, Airfield)
Use:Public/Civil
Latitude:35°20'23"N (35.339719)
Longitude:25°10'49"E (25.180297)
Datum:WGS 1984
Elevation:115 ft (35 m)
Runways:3
Longest:8800 × 148 ft (2682 × 45 m)

Time
Timezone:UTC+2 (DST+5)
Local Time:

Weather
METAR:LGIR  210420Z 17006KT 9999 FEW025 13/09 Q1012 NOSIG
TAF:LGIR  202300Z 2100/2124 33015KT 9999 SCT020= TAF LGKO 202300Z 2100/2124 32016KT 9999 FEW018 BECMG 2113/2115 32016G26KT

Related Locations
Nearby:
Farthest:TUB: 11548 mi / 18584 km
Tubuai, Tubuai Islands, Austral Islands, PF

Find:

   beyond  
but within

Other Information
Maps:
Links:
Sources:

  


 


Great Circle Mapper   Great Circle Mapper
Great Circle Mapper FAQ   Great Circle Mapper FAQ
  Karl's Home Page
KLSē   KLSē Home
   GC on Facebook
Airlines of the World   Airlines of the World
Donate via PayPal


Copyright © 2004-2015, Karl L. Swartz. All rights reserved.
All trademarks mentioned herein belong to their respective owners.

Please see credits for attribution and copyright information.

Karl Swartz <karl@kls2.com>
  Powered by FreeBSD
Valid HTML 4.01!
Labeled with ICRA
hCard Microformat
Geo Microformat